createdAt,value
2023-01-20T00:02:40.048Z,14.23
2023-01-20T00:05:28.020Z,11.83
2023-01-20T00:08:15.956Z,12.40
2023-01-20T00:11:05.640Z,12.80
2023-01-20T00:13:57.207Z,14.73
2023-01-20T00:16:45.149Z,13.37
2023-01-20T00:19:33.081Z,14.03
2023-01-20T00:22:22.012Z,15.37
2023-01-20T00:25:11.709Z,12.40
2023-01-20T00:28:00.082Z,12.13
2023-01-20T00:30:49.494Z,12.83
2023-01-20T00:33:37.495Z,14.83
2023-01-20T00:36:27.417Z,17.57
2023-01-20T00:39:15.384Z,17.33
2023-01-20T00:42:03.346Z,18.20
2023-01-20T00:44:51.340Z,14.50
2023-01-20T00:47:40.640Z,15.77
2023-01-20T00:50:28.631Z,12.13
2023-01-20T00:53:16.620Z,9.87
2023-01-20T00:56:04.887Z,11.97
2023-01-20T00:58:55.164Z,9.63
2023-01-20T01:01:43.227Z,10.87
2023-01-20T01:04:32.706Z,13.30
2023-01-20T01:07:20.668Z,9.80
2023-01-20T01:10:09.854Z,10.37
2023-01-20T01:12:59.542Z,10.17
2023-01-20T01:15:50.524Z,10.30
2023-01-20T01:18:39.384Z,15.33
2023-01-20T01:21:28.724Z,12.07
2023-01-20T01:24:16.674Z,13.10
2023-01-20T01:27:05.417Z,16.07
2023-01-20T01:29:53.371Z,16.70
2023-01-20T01:32:41.504Z,16.07
2023-01-20T01:35:29.477Z,15.90
2023-01-20T01:38:18.751Z,18.00
2023-01-20T01:41:07.242Z,16.63
2023-01-20T01:44:04.623Z,20.50
2023-01-20T01:46:52.620Z,18.23
2023-01-20T01:49:40.798Z,19.30
2023-01-20T01:52:29.392Z,20.03
2023-01-20T01:55:21.416Z,21.03
2023-01-20T01:58:12.692Z,19.83
2023-01-20T02:01:01.144Z,20.27
2023-01-20T02:03:55.722Z,17.27
2023-01-20T02:06:47.054Z,19.73
2023-01-20T02:09:35.737Z,18.47
2023-01-20T02:12:25.454Z,18.27
2023-01-20T02:15:14.676Z,17.10
2023-01-20T02:18:32.477Z,17.93
2023-01-20T02:21:55.873Z,15.73
2023-01-20T02:25:24.813Z,20.83
2023-01-20T02:28:45.456Z,21.53
2023-01-20T02:31:56.779Z,16.53
2023-01-20T02:34:49.758Z,21.60
2023-01-20T02:37:43.574Z,21.97
2023-01-20T02:40:37.101Z,20.03
2023-01-20T02:43:33.832Z,21.10
2023-01-20T02:46:26.597Z,20.77
2023-01-20T02:49:19.295Z,19.47
2023-01-20T02:52:12.018Z,20.87
2023-01-20T02:55:05.838Z,19.10
2023-01-20T02:58:00.138Z,17.00
2023-01-20T03:00:52.223Z,20.83
2023-01-20T03:03:44.873Z,22.57
2023-01-20T03:06:38.140Z,22.67
2023-01-20T03:09:31.404Z,21.10
2023-01-20T03:12:23.386Z,22.33
2023-01-20T03:15:13.087Z,20.10
2023-01-20T03:18:01.274Z,19.50
2023-01-20T03:20:49.543Z,18.33
2023-01-20T03:23:44.155Z,23.90
2023-01-20T03:26:32.525Z,22.30
2023-01-20T03:29:20.594Z,26.53
2023-01-20T03:32:10.917Z,22.93
2023-01-20T03:35:00.515Z,21.57
2023-01-20T03:37:48.505Z,19.83
2023-01-20T03:40:42.895Z,25.93
2023-01-20T03:43:39.871Z,25.70
2023-01-20T03:46:33.344Z,22.30
2023-01-20T03:49:29.127Z,20.53
2023-01-20T03:52:47.207Z,23.30
2023-01-20T03:55:39.207Z,25.93
2023-01-20T03:58:30.252Z,22.17
2023-01-20T04:01:21.053Z,21.90
2023-01-20T04:04:14.662Z,23.03
2023-01-20T04:07:04.787Z,26.27
2023-01-20T04:09:57.277Z,27.40
2023-01-20T04:12:46.701Z,25.50
2023-01-20T04:15:37.540Z,25.10
2023-01-20T04:18:25.917Z,22.47
2023-01-20T04:21:20.731Z,66.53
2023-01-20T04:24:15.845Z,23.87
2023-01-20T04:27:03.828Z,29.23
2023-01-20T04:29:53.174Z,26.10
2023-01-20T04:32:41.160Z,88.63
2023-01-20T04:35:29.144Z,24.83
2023-01-20T04:38:17.189Z,24.47
2023-01-20T04:41:05.365Z,22.90
2023-01-20T04:43:53.285Z,21.00
2023-01-20T04:46:42.750Z,25.77
2023-01-20T04:49:30.840Z,19.93
2023-01-20T04:52:18.855Z,20.30
2023-01-20T04:55:07.509Z,21.00
2023-01-20T04:57:55.590Z,18.97
2023-01-20T05:00:43.806Z,29.17
2023-01-20T05:03:33.439Z,21.80
2023-01-20T05:06:21.404Z,19.87
2023-01-20T05:09:10.762Z,20.47
2023-01-20T05:11:58.729Z,19.93
2023-01-20T05:14:46.653Z,18.23
2023-01-20T05:17:34.615Z,18.53
2023-01-20T05:20:23.992Z,19.10
2023-01-20T05:23:12.014Z,16.23
2023-01-20T05:25:59.996Z,15.07
2023-01-20T05:28:48.006Z,16.73
2023-01-20T05:31:37.620Z,14.17
2023-01-20T05:34:25.750Z,15.67
2023-01-20T05:37:17.749Z,14.17
2023-01-20T05:40:06.626Z,16.00
2023-01-20T05:42:54.613Z,17.27
2023-01-20T05:45:43.236Z,22.20
2023-01-20T05:48:31.245Z,20.33
2023-01-20T05:51:19.354Z,17.50
2023-01-20T05:54:08.709Z,21.37
2023-01-20T05:56:56.750Z,46.37
2023-01-20T05:59:44.931Z,72.03
2023-01-20T06:02:33.031Z,39.03
2023-01-20T06:05:21.023Z,21.23
2023-01-20T06:08:09.045Z,41.67
2023-01-20T06:10:59.687Z,55.47
2023-01-20T06:13:48.245Z,23.93
2023-01-20T06:16:36.270Z,21.53
2023-01-20T06:19:24.241Z,28.27
2023-01-20T06:22:15.347Z,25.83
2023-01-20T06:25:03.408Z,20.47
2023-01-20T06:27:52.768Z,43.37
2023-01-20T06:30:43.148Z,43.23
2023-01-20T06:33:32.015Z,25.63
2023-01-20T06:36:20.163Z,35.93
2023-01-20T06:39:08.131Z,25.77
2023-01-20T06:41:58.817Z,24.33
2023-01-20T06:44:48.194Z,42.00
2023-01-20T06:47:36.396Z,34.03
2023-01-20T06:50:24.412Z,23.70
2023-01-20T06:53:12.538Z,17.17
2023-01-20T06:56:01.794Z,15.70
2023-01-20T06:58:49.869Z,16.90
2023-01-20T07:01:39.686Z,14.10
2023-01-20T07:04:27.699Z,15.60
2023-01-20T07:07:15.688Z,14.33
2023-01-20T07:10:04.463Z,19.43
2023-01-20T07:12:52.427Z,17.83
2023-01-20T07:15:40.389Z,17.87
2023-01-20T07:18:29.704Z,21.10
2023-01-20T07:21:18.202Z,18.27
2023-01-20T07:24:07.181Z,21.10
2023-01-20T07:26:55.229Z,17.57
2023-01-20T07:29:43.198Z,18.37
2023-01-20T07:32:31.831Z,20.03
2023-01-20T07:35:21.088Z,19.87
2023-01-20T07:38:09.092Z,19.77
2023-01-20T07:40:58.737Z,20.97
2023-01-20T07:43:48.129Z,22.33
2023-01-20T07:46:36.087Z,21.70
2023-01-20T07:49:24.043Z,21.50
2023-01-20T07:52:13.371Z,19.47
2023-01-20T07:55:01.457Z,19.10
2023-01-20T07:57:50.694Z,20.17
2023-01-20T08:00:38.674Z,21.40
2023-01-20T08:03:27.486Z,17.90
2023-01-20T08:06:18.366Z,20.20
2023-01-20T08:09:12.088Z,21.17
2023-01-20T08:12:01.789Z,26.40
2023-01-20T08:14:49.776Z,29.90
2023-01-20T08:17:37.774Z,22.97
2023-01-20T08:20:25.992Z,19.27
2023-01-20T08:23:14.180Z,19.63
2023-01-20T08:26:05.870Z,20.10
2023-01-20T08:28:54.011Z,19.10
2023-01-20T08:31:42.471Z,16.57
2023-01-20T08:34:30.557Z,14.13
2023-01-20T08:37:18.684Z,16.90
2023-01-20T08:40:09.057Z,14.40
2023-01-20T08:42:58.416Z,15.40
2023-01-20T08:45:46.446Z,15.77
2023-01-20T08:48:35.073Z,14.33
2023-01-20T08:51:25.292Z,14.07
2023-01-20T08:54:14.680Z,14.60
2023-01-20T08:57:02.786Z,16.73
2023-01-20T08:59:52.101Z,16.73
2023-01-20T09:02:40.987Z,15.70
2023-01-20T09:05:29.003Z,14.87
2023-01-20T09:08:18.338Z,17.33
2023-01-20T09:11:08.184Z,17.27
2023-01-20T09:13:57.303Z,16.57
2023-01-20T09:16:46.771Z,16.83
2023-01-20T09:19:35.022Z,16.00
2023-01-20T09:22:23.295Z,14.43
2023-01-20T09:25:12.245Z,14.20
2023-01-20T09:28:01.636Z,13.30
2023-01-20T09:30:49.763Z,15.10
2023-01-20T09:33:41.682Z,13.03
2023-01-20T09:36:30.350Z,14.77
2023-01-20T09:39:36.307Z,12.50
2023-01-20T09:42:55.985Z,13.67
2023-01-20T09:45:53.584Z,11.40
2023-01-20T09:49:09.631Z,12.93
2023-01-20T09:52:24.757Z,12.00
2023-01-20T09:55:18.099Z,12.23
2023-01-20T09:58:13.475Z,13.87
2023-01-20T10:01:09.668Z,12.30
2023-01-20T10:04:05.031Z,14.03
2023-01-20T10:06:55.444Z,12.83
2023-01-20T10:09:50.586Z,12.33
2023-01-20T10:12:44.309Z,13.30
2023-01-20T10:15:36.391Z,13.97
2023-01-20T10:18:32.366Z,14.47
2023-01-20T10:21:27.614Z,12.57
2023-01-20T10:24:22.096Z,12.33
2023-01-20T10:27:10.117Z,15.43
2023-01-20T10:30:04.816Z,11.80
2023-01-20T10:32:59.758Z,12.30
2023-01-20T10:35:50.681Z,12.80
2023-01-20T10:38:46.943Z,14.33
2023-01-20T10:41:41.612Z,13.60
2023-01-20T10:44:29.753Z,14.73
2023-01-20T10:47:25.233Z,15.33
2023-01-20T10:50:44.056Z,17.27
2023-01-20T10:53:48.348Z,15.50
2023-01-20T10:56:42.425Z,14.93
2023-01-20T10:59:34.735Z,16.97
2023-01-20T11:02:27.236Z,15.77
2023-01-20T11:05:19.424Z,14.90
2023-01-20T11:08:16.224Z,16.47
2023-01-20T11:11:13.157Z,18.10
2023-01-20T11:14:01.560Z,15.73
2023-01-20T11:16:54.557Z,15.30
2023-01-20T11:19:48.006Z,18.10
2023-01-20T11:22:38.499Z,15.73
2023-01-20T11:25:28.580Z,16.80
2023-01-20T11:28:20.554Z,15.87
2023-01-20T11:31:08.770Z,15.57
2023-01-20T11:33:59.478Z,17.37
2023-01-20T11:36:47.689Z,14.67
2023-01-20T11:39:37.615Z,15.33
2023-01-20T11:42:27.880Z,15.83
2023-01-20T11:45:32.636Z,14.27
2023-01-20T11:48:21.724Z,17.23
2023-01-20T11:51:20.708Z,15.00
2023-01-20T11:54:09.943Z,12.80
2023-01-20T11:57:04.663Z,12.17
2023-01-20T11:59:52.630Z,12.57
2023-01-20T12:02:42.161Z,14.50
2023-01-20T12:05:37.293Z,12.30
2023-01-20T12:08:30.013Z,10.80
2023-01-20T12:11:23.201Z,14.83
2023-01-20T12:14:23.366Z,14.03
2023-01-20T12:17:20.226Z,15.53
2023-01-20T12:20:17.827Z,13.90
2023-01-20T12:23:21.428Z,15.43
2023-01-20T12:26:11.529Z,15.47
2023-01-20T12:29:03.465Z,10.93
2023-01-20T12:31:51.628Z,11.97
2023-01-20T12:34:39.791Z,10.10
2023-01-20T12:37:39.527Z,12.07
2023-01-20T12:40:39.454Z,11.10
2023-01-20T12:43:39.432Z,12.13
2023-01-20T12:46:36.538Z,9.70
2023-01-20T12:49:45.306Z,10.40
2023-01-20T12:52:50.504Z,10.60
2023-01-20T12:55:52.610Z,11.83
2023-01-20T12:58:51.960Z,12.03
2023-01-20T13:01:50.715Z,11.70
2023-01-20T13:05:09.603Z,11.00
2023-01-20T13:08:12.411Z,13.23
2023-01-20T13:11:10.750Z,11.13
2023-01-20T13:14:05.657Z,11.70
2023-01-20T13:17:02.836Z,14.37
2023-01-20T13:19:57.455Z,12.13
2023-01-20T13:22:45.505Z,10.80
2023-01-20T13:25:36.235Z,11.60
2023-01-20T13:28:26.760Z,11.07
2023-01-20T13:31:33.957Z,12.83
2023-01-20T13:34:40.994Z,14.43
2023-01-20T13:37:32.156Z,12.67
2023-01-20T13:40:49.650Z,10.63
2023-01-20T13:43:49.223Z,12.73
2023-01-20T13:46:50.249Z,11.13
2023-01-20T13:49:52.052Z,11.50
2023-01-20T13:53:19.843Z,11.17
2023-01-20T13:56:25.746Z,12.33
2023-01-20T13:59:13.813Z,11.33
2023-01-20T14:02:17.510Z,10.13
2023-01-20T14:05:19.859Z,10.93
2023-01-20T14:08:15.514Z,11.70
2023-01-20T14:11:23.907Z,9.73
2023-01-20T14:14:20.120Z,12.13
2023-01-20T14:17:16.102Z,11.50
2023-01-20T14:20:21.606Z,10.13
2023-01-20T14:23:39.667Z,9.43
2023-01-20T14:26:30.496Z,10.93
2023-01-20T14:29:21.753Z,10.70
2023-01-20T14:32:22.378Z,12.67
2023-01-20T14:35:16.042Z,11.40
2023-01-20T14:38:04.402Z,12.13
2023-01-20T14:40:52.651Z,12.57
2023-01-20T14:43:46.545Z,12.60
2023-01-20T14:46:37.210Z,10.67
2023-01-20T14:49:30.233Z,12.57
2023-01-20T14:52:22.727Z,10.90
2023-01-20T14:55:27.508Z,12.60
2023-01-20T14:58:18.236Z,10.70
2023-01-20T15:01:08.163Z,15.73
2023-01-20T15:03:57.908Z,12.17
2023-01-20T15:06:53.308Z,11.57
2023-01-20T15:09:43.482Z,14.63
2023-01-20T15:12:42.603Z,13.57
2023-01-20T15:15:32.044Z,13.90
2023-01-20T15:18:23.209Z,14.40
2023-01-20T15:21:26.496Z,12.70
2023-01-20T15:24:16.361Z,13.20
2023-01-20T15:27:22.928Z,13.97
2023-01-20T15:30:21.006Z,11.40
2023-01-20T15:33:10.186Z,15.10
2023-01-20T15:36:00.950Z,11.47
2023-01-20T15:38:49.117Z,12.60
2023-01-20T15:41:37.124Z,13.53
2023-01-20T15:44:26.609Z,17.60
2023-01-20T15:47:21.506Z,16.73
2023-01-20T15:50:18.631Z,12.20
2023-01-20T15:53:08.058Z,19.63
2023-01-20T15:55:56.028Z,21.07
2023-01-20T15:58:44.017Z,25.27
2023-01-20T16:01:32.086Z,27.90
2023-01-20T16:04:20.895Z,17.80
2023-01-20T16:07:12.104Z,11.10
2023-01-20T16:10:01.457Z,14.13
2023-01-20T16:12:49.689Z,12.80
2023-01-20T16:15:38.505Z,8.93
2023-01-20T16:18:26.440Z,10.10
2023-01-20T16:21:15.558Z,9.73
2023-01-20T16:24:03.572Z,9.57
2023-01-20T16:26:53.014Z,9.43
2023-01-20T16:29:41.100Z,10.60
2023-01-20T16:32:29.078Z,10.97
2023-01-20T16:35:18.644Z,11.10
2023-01-20T16:38:06.578Z,11.03
2023-01-20T16:40:58.837Z,12.13
2023-01-20T16:43:48.699Z,11.00
2023-01-20T16:46:36.755Z,11.80
2023-01-20T16:49:24.736Z,9.67
2023-01-20T16:52:13.859Z,15.37
2023-01-20T16:55:01.989Z,13.63
2023-01-20T16:57:50.003Z,13.37
2023-01-20T17:00:39.728Z,14.10
2023-01-20T17:03:28.046Z,15.60
2023-01-20T17:06:18.163Z,15.93
2023-01-20T17:09:06.862Z,18.23
2023-01-20T17:11:54.906Z,14.07
2023-01-20T17:14:42.892Z,14.93
2023-01-20T17:17:33.763Z,16.73
2023-01-20T17:20:22.155Z,16.03
2023-01-20T17:23:10.161Z,14.43
2023-01-20T17:25:58.110Z,15.00
2023-01-20T17:28:46.205Z,11.53
2023-01-20T17:31:36.652Z,16.17
2023-01-20T17:34:26.358Z,15.10
2023-01-20T17:37:14.451Z,13.27
2023-01-20T17:40:02.435Z,13.20
2023-01-20T17:42:53.660Z,15.53
2023-01-20T17:45:42.128Z,16.83
2023-01-20T17:48:30.476Z,14.70
2023-01-20T17:51:21.405Z,14.80
2023-01-20T17:54:11.469Z,14.40
2023-01-20T17:56:59.462Z,12.60
2023-01-20T17:59:47.479Z,13.13
2023-01-20T18:02:35.451Z,13.90
2023-01-20T18:05:23.551Z,13.93
2023-01-20T18:08:13.036Z,12.50
2023-01-20T18:11:03.644Z,15.77
2023-01-20T18:13:55.088Z,16.57
2023-01-20T18:16:43.124Z,14.30
2023-01-20T18:19:31.134Z,17.30
2023-01-20T18:22:19.315Z,17.97
2023-01-20T18:25:09.413Z,20.07
2023-01-20T18:27:57.364Z,21.13
2023-01-20T18:30:45.423Z,19.77
2023-01-20T18:33:34.240Z,21.67
2023-01-20T18:36:24.376Z,26.50
2023-01-20T18:39:15.914Z,24.07
2023-01-20T18:42:05.633Z,24.47
2023-01-20T18:44:53.662Z,23.70
2023-01-20T18:47:42.492Z,17.63
2023-01-20T18:50:30.642Z,21.70
2023-01-20T18:53:18.587Z,19.67
2023-01-20T18:56:09.144Z,21.70
2023-01-20T18:58:58.685Z,20.37
2023-01-20T19:01:46.752Z,20.70
2023-01-20T19:04:35.690Z,20.07
2023-01-20T19:07:23.707Z,22.07
2023-01-20T19:10:12.423Z,18.63
2023-01-20T19:13:00.416Z,17.33
2023-01-20T19:15:49.788Z,18.20
2023-01-20T19:18:37.783Z,19.83
2023-01-20T19:21:26.684Z,19.33
2023-01-20T19:24:19.717Z,22.20
2023-01-20T19:27:08.129Z,25.37
2023-01-20T19:29:56.100Z,25.57
2023-01-20T19:32:45.399Z,23.13
2023-01-20T19:35:35.090Z,22.03
2023-01-20T19:38:23.151Z,23.43
2023-01-20T19:41:12.437Z,22.50
2023-01-20T19:44:01.818Z,20.40
2023-01-20T19:46:49.837Z,21.10
2023-01-20T19:49:39.269Z,20.07
2023-01-20T19:52:28.992Z,22.27
2023-01-20T19:55:17.029Z,22.33
2023-01-20T19:58:06.271Z,26.05
2023-01-20T20:00:54.264Z,29.83
2023-01-20T20:03:42.441Z,24.27
2023-01-20T20:06:33.764Z,24.90
2023-01-20T20:09:23.393Z,25.27
2023-01-20T20:12:11.558Z,29.47
2023-01-20T20:15:00.064Z,28.67
2023-01-20T20:17:48.052Z,23.27
2023-01-20T20:20:36.113Z,26.37
2023-01-20T20:23:25.772Z,24.93
2023-01-20T20:26:14.213Z,25.10
2023-01-20T20:29:03.978Z,24.63
2023-01-20T20:31:52.019Z,20.67
2023-01-20T20:34:39.999Z,25.33
2023-01-20T20:37:27.984Z,24.33
2023-01-20T20:40:17.886Z,25.07
2023-01-20T20:43:05.933Z,25.00
2023-01-20T20:45:54.120Z,25.53
2023-01-20T20:48:42.255Z,28.23
2023-01-20T20:51:32.171Z,28.30
2023-01-20T20:54:20.371Z,29.13
2023-01-20T20:57:09.695Z,27.77
2023-01-20T20:59:59.401Z,29.93
2023-01-20T21:02:47.712Z,26.63
2023-01-20T21:05:35.996Z,23.37
2023-01-20T21:08:25.317Z,26.97
2023-01-20T21:11:14.027Z,24.97
2023-01-20T21:14:03.525Z,28.13
2023-01-20T21:16:51.550Z,23.47
2023-01-20T21:19:39.465Z,24.77
2023-01-20T21:22:27.646Z,21.30
2023-01-20T21:25:17.625Z,22.80
2023-01-20T21:28:06.002Z,18.40
2023-01-20T21:30:55.398Z,23.03
2023-01-20T21:33:45.697Z,22.17
2023-01-20T21:36:34.534Z,23.90
2023-01-20T21:39:22.682Z,20.67
2023-01-20T21:42:10.605Z,20.73
2023-01-20T21:44:58.599Z,22.50
2023-01-20T21:47:47.962Z,20.00
2023-01-20T21:50:53.435Z,23.37
2023-01-20T21:53:41.434Z,20.63
2023-01-20T21:56:29.724Z,21.77
2023-01-20T21:59:17.866Z,22.87
2023-01-20T22:02:06.186Z,23.23
2023-01-20T22:04:55.610Z,23.83
2023-01-20T22:07:43.629Z,24.50
2023-01-20T22:10:32.602Z,21.57
2023-01-20T22:13:20.597Z,20.80
2023-01-20T22:16:09.254Z,19.97
2023-01-20T22:18:57.217Z,22.00
2023-01-20T22:21:46.593Z,20.87
2023-01-20T22:24:34.740Z,21.00
2023-01-20T22:27:22.720Z,23.17
2023-01-20T22:30:12.128Z,24.60
2023-01-20T22:33:00.108Z,20.23
2023-01-20T22:35:48.127Z,23.13
2023-01-20T22:38:37.476Z,19.83
2023-01-20T22:41:25.590Z,30.67
2023-01-20T22:44:13.552Z,37.33
2023-01-20T22:47:01.610Z,38.40
2023-01-20T22:49:49.526Z,30.17
2023-01-20T22:52:37.482Z,28.57
2023-01-20T22:55:27.057Z,25.17
2023-01-20T22:58:16.812Z,22.93
2023-01-20T23:01:05.064Z,24.13
2023-01-20T23:03:55.641Z,24.17
2023-01-20T23:06:43.751Z,23.13
2023-01-20T23:09:31.854Z,24.73
2023-01-20T23:12:21.197Z,22.63
2023-01-20T23:15:10.126Z,24.77
2023-01-20T23:17:58.166Z,27.03
2023-01-20T23:20:49.536Z,28.30
2023-01-20T23:23:37.692Z,26.40
2023-01-20T23:26:27.319Z,28.63
2023-01-20T23:29:16.620Z,30.43
2023-01-20T23:32:04.914Z,30.00
2023-01-20T23:34:52.946Z,29.77
2023-01-20T23:37:40.999Z,44.17
2023-01-20T23:40:30.225Z,38.00
2023-01-20T23:43:18.191Z,76.30
2023-01-20T23:46:08.211Z,38.73
2023-01-20T23:48:56.280Z,35.87
2023-01-20T23:51:44.225Z,32.10
2023-01-20T23:54:32.343Z,30.03
2023-01-20T23:57:20.927Z,30.13
